Pescadero, California
Current Conditions -  °F | °C
As of 8:15 AM on Thursday 23 Oct 2014 (Local Time) from KHAF Reporting Station
Haze Haze  
Wind Chill: 55°   Ceiling: Unl
Heat Index: 55°   Visibility: 4mi
Dew Point: 55°   Wind: 3mph
Humidity: 100%   Direction: 360°N
Pressure: 30.07"   Gusts: NA
Location:  37.25°N, 122.38°W
Report Text: KHAF 231515Z AUTO 36003KT 4SM BR CLR 13/13 A3007 RMK AO2
Loading
Personal Weather Stations






























Interactive Weather Map
Tropical Storm Tracking
New forecast layout! Learn more

10-Day Weather Forecast

Advertisements
Track Severe Weather on mobile